sensor_id;sensor_type;location;lat;lon;timestamp;pressure;altitude;pressure_sealevel;temperature;humidity
64141;BME280;50436;50.618;7.932;2024-02-21T00:01:47;97235.25;;;4.72;100.00
64141;BME280;50436;50.618;7.932;2024-02-21T00:04:33;97236.31;;;4.50;100.00
64141;BME280;50436;50.618;7.932;2024-02-21T00:07:18;97248.47;;;4.65;100.00
64141;BME280;50436;50.618;7.932;2024-02-21T00:10:05;97234.03;;;4.68;100.00
64141;BME280;50436;50.618;7.932;2024-02-21T00:12:51;97226.91;;;4.47;100.00
64141;BME280;50436;50.618;7.932;2024-02-21T00:15:37;97226.50;;;4.50;100.00
64141;BME280;50436;50.618;7.932;2024-02-21T00:18:23;97222.34;;;4.62;100.00
64141;BME280;50436;50.618;7.932;2024-02-21T00:21:09;97236.66;;;4.68;100.00
64141;BME280;50436;50.618;7.932;2024-02-21T00:23:55;97245.59;;;4.67;100.00
64141;BME280;50436;50.618;7.932;2024-02-21T00:26:41;97240.13;;;4.68;100.00
64141;BME280;50436;50.618;7.932;2024-02-21T00:29:27;97237.53;;;4.75;100.00
64141;BME280;50436;50.618;7.932;2024-02-21T00:32:13;97232.25;;;4.82;100.00
64141;BME280;50436;50.618;7.932;2024-02-21T00:34:58;97224.34;;;4.88;100.00
64141;BME280;50436;50.618;7.932;2024-02-21T00:37:44;97229.59;;;4.82;100.00
64141;BME280;50436;50.618;7.932;2024-02-21T00:40:30;97233.19;;;4.67;100.00
64141;BME280;50436;50.618;7.932;2024-02-21T00:43:16;97223.59;;;4.66;100.00
64141;BME280;50436;50.618;7.932;2024-02-21T00:46:02;97226.88;;;4.68;100.00
64141;BME280;50436;50.618;7.932;2024-02-21T00:48:48;97218.75;;;4.48;100.00
64141;BME280;50436;50.618;7.932;2024-02-21T00:51:35;97210.25;;;4.53;100.00
64141;BME280;50436;50.618;7.932;2024-02-21T00:54:21;97216.44;;;4.39;100.00
64141;BME280;50436;50.618;7.932;2024-02-21T00:57:11;97213.03;;;4.45;100.00
64141;BME280;50436;50.618;7.932;2024-02-21T01:00:00;97203.38;;;4.37;100.00
64141;BME280;50436;50.618;7.932;2024-02-21T01:02:45;97192.13;;;4.35;100.00
64141;BME280;50436;50.618;7.932;2024-02-21T01:05:31;97191.97;;;4.37;100.00
64141;BME280;50436;50.618;7.932;2024-02-21T01:08:17;97192.03;;;4.22;100.00
64141;BME280;50436;50.618;7.932;2024-02-21T01:11:05;97181.13;;;4.32;100.00
64141;BME280;50436;50.618;7.932;2024-02-21T01:13:51;97193.09;;;4.28;100.00
64141;BME280;50436;50.618;7.932;2024-02-21T01:16:39;97186.84;;;4.35;100.00
64141;BME280;50436;50.618;7.932;2024-02-21T01:19:25;97181.13;;;4.32;100.00
64141;BME280;50436;50.618;7.932;2024-02-21T01:22:11;97186.22;;;4.33;100.00
64141;BME280;50436;50.618;7.932;2024-02-21T01:24:57;97187.03;;;4.34;100.00
64141;BME280;50436;50.618;7.932;2024-02-21T01:27:43;97189.53;;;4.42;100.00
64141;BME280;50436;50.618;7.932;2024-02-21T01:30:29;97185.16;;;4.28;100.00
64141;BME280;50436;50.618;7.932;2024-02-21T01:33:14;97185.47;;;4.39;100.00
64141;BME280;50436;50.618;7.932;2024-02-21T01:36:02;97176.38;;;4.27;100.00
64141;BME280;50436;50.618;7.932;2024-02-21T01:38:47;97172.16;;;4.33;100.00
64141;BME280;50436;50.618;7.932;2024-02-21T01:41:33;97169.13;;;4.36;100.00
64141;BME280;50436;50.618;7.932;2024-02-21T01:44:19;97175.41;;;4.35;100.00
64141;BME280;50436;50.618;7.932;2024-02-21T01:47:05;97177.31;;;4.41;100.00
64141;BME280;50436;50.618;7.932;2024-02-21T01:49:51;97163.13;;;4.27;100.00
64141;BME280;50436;50.618;7.932;2024-02-21T01:52:37;97170.84;;;4.22;100.00
64141;BME280;50436;50.618;7.932;2024-02-21T01:55:23;97153.25;;;4.14;100.00
64141;BME280;50436;50.618;7.932;2024-02-21T01:58:10;97141.41;;;4.10;100.00
64141;BME280;50436;50.618;7.932;2024-02-21T02:00:56;97150.66;;;4.21;100.00
64141;BME280;50436;50.618;7.932;2024-02-21T02:03:45;97134.59;;;4.23;100.00
64141;BME280;50436;50.618;7.932;2024-02-21T02:06:31;97138.25;;;4.22;100.00
64141;BME280;50436;50.618;7.932;2024-02-21T02:09:17;97133.72;;;4.15;100.00
64141;BME280;50436;50.618;7.932;2024-02-21T02:12:03;97127.59;;;4.15;100.00
64141;BME280;50436;50.618;7.932;2024-02-21T02:14:59;97129.03;;;4.17;100.00
64141;BME280;50436;50.618;7.932;2024-02-21T02:17:45;97112.75;;;4.21;100.00
64141;BME280;50436;50.618;7.932;2024-02-21T02:20:34;97117.41;;;4.18;100.00
64141;BME280;50436;50.618;7.932;2024-02-21T02:26:10;97122.50;;;4.20;100.00
64141;BME280;50436;50.618;7.932;2024-02-21T02:28:56;97114.97;;;4.17;100.00
64141;BME280;50436;50.618;7.932;2024-02-21T02:35:43;97101.09;;;4.15;100.00
64141;BME280;50436;50.618;7.932;2024-02-21T02:38:29;97095.75;;;4.08;100.00
64141;BME280;50436;50.618;7.932;2024-02-21T02:41:15;97088.00;;;4.07;100.00
64141;BME280;50436;50.618;7.932;2024-02-21T02:44:01;97089.25;;;4.11;100.00
64141;BME280;50436;50.618;7.932;2024-02-21T02:46:46;97087.19;;;4.06;100.00
64141;BME280;50436;50.618;7.932;2024-02-21T02:49:32;97063.09;;;4.01;100.00
64141;BME280;50436;50.618;7.932;2024-02-21T02:52:18;97057.22;;;4.06;100.00
64141;BME280;50436;50.618;7.932;2024-02-21T02:55:05;97045.78;;;3.99;100.00
64141;BME280;50436;50.618;7.932;2024-02-21T02:57:51;97049.69;;;4.09;100.00
64141;BME280;50436;50.618;7.932;2024-02-21T03:00:37;97026.25;;;4.06;100.00
64141;BME280;50436;50.618;7.932;2024-02-21T03:03:24;97037.88;;;4.05;100.00
64141;BME280;50436;50.618;7.932;2024-02-21T03:06:10;97025.63;;;4.04;100.00
64141;BME280;50436;50.618;7.932;2024-02-21T03:08:58;97034.00;;;4.08;100.00
64141;BME280;50436;50.618;7.932;2024-02-21T03:11:45;97031.31;;;4.01;100.00
64141;BME280;50436;50.618;7.932;2024-02-21T03:14:32;97039.06;;;4.03;100.00
64141;BME280;50436;50.618;7.932;2024-02-21T03:17:18;97042.38;;;4.11;100.00
64141;BME280;50436;50.618;7.932;2024-02-21T03:20:04;97038.75;;;4.19;100.00
64141;BME280;50436;50.618;7.932;2024-02-21T03:22:56;97048.00;;;4.30;100.00
64141;BME280;50436;50.618;7.932;2024-02-21T03:25:42;97039.50;;;4.41;100.00
64141;BME280;50436;50.618;7.932;2024-02-21T03:28:28;97047.81;;;4.31;100.00
64141;BME280;50436;50.618;7.932;2024-02-21T03:31:13;97041.84;;;4.23;100.00
64141;BME280;50436;50.618;7.932;2024-02-21T03:33:59;97029.59;;;4.15;100.00
64141;BME280;50436;50.618;7.932;2024-02-21T03:36:45;97038.28;;;4.09;100.00
64141;BME280;50436;50.618;7.932;2024-02-21T03:39:31;97051.63;;;4.22;100.00
64141;BME280;50436;50.618;7.932;2024-02-21T03:42:18;97044.34;;;4.31;100.00
64141;BME280;50436;50.618;7.932;2024-02-21T03:45:04;97050.25;;;4.33;100.00
64141;BME280;50436;50.618;7.932;2024-02-21T03:47:50;97050.41;;;4.25;100.00
64141;BME280;50436;50.618;7.932;2024-02-21T03:50:36;97037.63;;;4.35;100.00
64141;BME280;50436;50.618;7.932;2024-02-21T03:53:22;97027.88;;;4.42;100.00
64141;BME280;50436;50.618;7.932;2024-02-21T03:56:08;97019.59;;;4.52;100.00
64141;BME280;50436;50.618;7.932;2024-02-21T03:58:54;97022.63;;;4.48;100.00
64141;BME280;50436;50.618;7.932;2024-02-21T04:01:39;97016.75;;;4.53;100.00
64141;BME280;50436;50.618;7.932;2024-02-21T04:04:25;97005.88;;;4.41;100.00
64141;BME280;50436;50.618;7.932;2024-02-21T04:07:12;96982.72;;;4.15;100.00
64141;BME280;50436;50.618;7.932;2024-02-21T04:09:58;96997.19;;;4.19;100.00
64141;BME280;50436;50.618;7.932;2024-02-21T04:12:44;97003.19;;;4.28;100.00
64141;BME280;50436;50.618;7.932;2024-02-21T04:15:30;97003.63;;;4.38;100.00
64141;BME280;50436;50.618;7.932;2024-02-21T04:18:15;96994.59;;;4.26;100.00
64141;BME280;50436;50.618;7.932;2024-02-21T04:21:04;96985.41;;;4.22;100.00
64141;BME280;50436;50.618;7.932;2024-02-21T04:23:50;96988.78;;;4.09;100.00
64141;BME280;50436;50.618;7.932;2024-02-21T04:26:36;96984.16;;;4.18;100.00
64141;BME280;50436;50.618;7.932;2024-02-21T04:29:22;96983.28;;;4.11;100.00
64141;BME280;50436;50.618;7.932;2024-02-21T04:32:09;96979.59;;;4.05;100.00
64141;BME280;50436;50.618;7.932;2024-02-21T04:34:55;96978.78;;;4.05;100.00
64141;BME280;50436;50.618;7.932;2024-02-21T04:37:43;96975.94;;;4.06;100.00
64141;BME280;50436;50.618;7.932;2024-02-21T04:40:30;96978.97;;;4.03;100.00
64141;BME280;50436;50.618;7.932;2024-02-21T04:43:16;96976.16;;;4.05;100.00
64141;BME280;50436;50.618;7.932;2024-02-21T04:46:02;96980.28;;;4.14;100.00
64141;BME280;50436;50.618;7.932;2024-02-21T04:48:48;96986.25;;;4.29;100.00
64141;BME280;50436;50.618;7.932;2024-02-21T04:51:33;96996.09;;;4.42;100.00
64141;BME280;50436;50.618;7.932;2024-02-21T04:54:19;96981.47;;;4.53;100.00
64141;BME280;50436;50.618;7.932;2024-02-21T04:57:05;96995.75;;;4.58;100.00
64141;BME280;50436;50.618;7.932;2024-02-21T04:59:51;96995.59;;;4.66;100.00
64141;BME280;50436;50.618;7.932;2024-02-21T05:02:37;96981.72;;;4.64;100.00
64141;BME280;50436;50.618;7.932;2024-02-21T05:05:22;96979.31;;;4.69;100.00
64141;BME280;50436;50.618;7.932;2024-02-21T05:08:09;96976.66;;;4.69;100.00
64141;BME280;50436;50.618;7.932;2024-02-21T05:10:55;96976.22;;;4.66;100.00
64141;BME280;50436;50.618;7.932;2024-02-21T05:13:44;96982.94;;;4.62;100.00
64141;BME280;50436;50.618;7.932;2024-02-21T05:16:33;96969.47;;;4.63;100.00
64141;BME280;50436;50.618;7.932;2024-02-21T05:19:18;96959.28;;;4.60;100.00
64141;BME280;50436;50.618;7.932;2024-02-21T05:22:04;96958.69;;;4.65;100.00
64141;BME280;50436;50.618;7.932;2024-02-21T05:24:50;96953.28;;;4.38;100.00
64141;BME280;50436;50.618;7.932;2024-02-21T05:27:36;96955.31;;;4.43;100.00
64141;BME280;50436;50.618;7.932;2024-02-21T05:30:24;96933.09;;;4.37;100.00
64141;BME280;50436;50.618;7.932;2024-02-21T05:33:09;96943.50;;;4.39;100.00
64141;BME280;50436;50.618;7.932;2024-02-21T05:35:55;96936.16;;;4.41;100.00
64141;BME280;50436;50.618;7.932;2024-02-21T05:38:41;96939.41;;;4.43;100.00
64141;BME280;50436;50.618;7.932;2024-02-21T05:41:27;96929.63;;;4.43;100.00
64141;BME280;50436;50.618;7.932;2024-02-21T05:44:13;96925.19;;;4.51;100.00
64141;BME280;50436;50.618;7.932;2024-02-21T05:46:59;96931.97;;;4.60;100.00
64141;BME280;50436;50.618;7.932;2024-02-21T05:49:44;96935.81;;;4.57;100.00
64141;BME280;50436;50.618;7.932;2024-02-21T05:52:30;96931.97;;;4.60;100.00
64141;BME280;50436;50.618;7.932;2024-02-21T05:55:16;96930.91;;;4.54;100.00
64141;BME280;50436;50.618;7.932;2024-02-21T05:58:02;96940.72;;;4.60;100.00
64141;BME280;50436;50.618;7.932;2024-02-21T06:00:48;96942.94;;;4.57;100.00
64141;BME280;50436;50.618;7.932;2024-02-21T06:03:34;96937.66;;;4.57;100.00
64141;BME280;50436;50.618;7.932;2024-02-21T06:06:20;96932.56;;;4.55;100.00
64141;BME280;50436;50.618;7.932;2024-02-21T06:09:07;96941.91;;;4.51;100.00
64141;BME280;50436;50.618;7.932;2024-02-21T06:11:53;96940.44;;;4.42;100.00
64141;BME280;50436;50.618;7.932;2024-02-21T06:14:39;96921.06;;;4.41;100.00
64141;BME280;50436;50.618;7.932;2024-02-21T06:17:25;96935.16;;;4.42;100.00
64141;BME280;50436;50.618;7.932;2024-02-21T06:20:11;96929.81;;;4.35;100.00
64141;BME280;50436;50.618;7.932;2024-02-21T06:22:57;96926.38;;;4.41;100.00
64141;BME280;50436;50.618;7.932;2024-02-21T06:25:43;96926.81;;;4.45;100.00
64141;BME280;50436;50.618;7.932;2024-02-21T06:28:29;96929.22;;;4.40;100.00
64141;BME280;50436;50.618;7.932;2024-02-21T06:31:15;96929.03;;;4.41;100.00
64141;BME280;50436;50.618;7.932;2024-02-21T06:34:01;96934.47;;;4.27;100.00
64141;BME280;50436;50.618;7.932;2024-02-21T06:36:47;96936.16;;;4.41;100.00
64141;BME280;50436;50.618;7.932;2024-02-21T06:39:34;96943.72;;;4.44;100.00
64141;BME280;50436;50.618;7.932;2024-02-21T06:42:24;96947.59;;;4.48;100.00
64141;BME280;50436;50.618;7.932;2024-02-21T06:45:10;96935.38;;;4.47;100.00
64141;BME280;50436;50.618;7.932;2024-02-21T06:47:56;96929.84;;;4.42;100.00
64141;BME280;50436;50.618;7.932;2024-02-21T06:50:42;96933.34;;;4.49;100.00
64141;BME280;50436;50.618;7.932;2024-02-21T06:53:28;96928.81;;;4.36;100.00
64141;BME280;50436;50.618;7.932;2024-02-21T06:56:14;96924.31;;;4.30;100.00
64141;BME280;50436;50.618;7.932;2024-02-21T06:59:00;96924.75;;;4.40;100.00
64141;BME280;50436;50.618;7.932;2024-02-21T07:01:48;96919.44;;;4.40;100.00
64141;BME280;50436;50.618;7.932;2024-02-21T07:04:34;96917.97;;;4.25;100.00
64141;BME280;50436;50.618;7.932;2024-02-21T07:07:20;96911.72;;;4.04;100.00
64141;BME280;50436;50.618;7.932;2024-02-21T07:10:07;96914.00;;;4.07;100.00
64141;BME280;50436;50.618;7.932;2024-02-21T07:12:53;96910.75;;;4.12;100.00
64141;BME280;50436;50.618;7.932;2024-02-21T07:15:39;96913.41;;;4.12;100.00
64141;BME280;50436;50.618;7.932;2024-02-21T07:18:25;96909.41;;;4.23;100.00
64141;BME280;50436;50.618;7.932;2024-02-21T07:21:10;96909.97;;;4.18;100.00
64141;BME280;50436;50.618;7.932;2024-02-21T07:23:58;96913.69;;;4.24;100.00
64141;BME280;50436;50.618;7.932;2024-02-21T07:26:44;96911.25;;;4.29;100.00
64141;BME280;50436;50.618;7.932;2024-02-21T07:29:30;96905.16;;;4.28;100.00
64141;BME280;50436;50.618;7.932;2024-02-21T07:32:18;96903.13;;;4.30;100.00
64141;BME280;50436;50.618;7.932;2024-02-21T07:35:04;96912.94;;;4.36;100.00
64141;BME280;50436;50.618;7.932;2024-02-21T07:37:51;96907.66;;;4.50;100.00
64141;BME280;50436;50.618;7.932;2024-02-21T07:40:39;96896.03;;;4.44;100.00
64141;BME280;50436;50.618;7.932;2024-02-21T07:43:25;96904.72;;;4.25;100.00
64141;BME280;50436;50.618;7.932;2024-02-21T07:46:12;96894.94;;;4.25;100.00
64141;BME280;50436;50.618;7.932;2024-02-21T07:48:58;96903.34;;;4.42;100.00
64141;BME280;50436;50.618;7.932;2024-02-21T07:51:43;96895.00;;;4.38;100.00
64141;BME280;50436;50.618;7.932;2024-02-21T07:54:29;96888.09;;;4.44;100.00
64141;BME280;50436;50.618;7.932;2024-02-21T07:57:15;96888.06;;;4.37;100.00
64141;BME280;50436;50.618;7.932;2024-02-21T08:00:01;96882.31;;;4.34;100.00
64141;BME280;50436;50.618;7.932;2024-02-21T08:02:48;96881.75;;;4.45;100.00
64141;BME280;50436;50.618;7.932;2024-02-21T08:05:35;96893.56;;;4.42;100.00
64141;BME280;50436;50.618;7.932;2024-02-21T08:08:21;96869.50;;;4.37;100.00
64141;BME280;50436;50.618;7.932;2024-02-21T08:11:08;96877.03;;;4.34;100.00
64141;BME280;50436;50.618;7.932;2024-02-21T08:13:54;96879.66;;;4.34;100.00
64141;BME280;50436;50.618;7.932;2024-02-21T08:16:40;96870.53;;;4.43;100.00
64141;BME280;50436;50.618;7.932;2024-02-21T08:19:26;96865.69;;;4.66;100.00
64141;BME280;50436;50.618;7.932;2024-02-21T08:22:12;96863.63;;;4.55;100.00
64141;BME280;50436;50.618;7.932;2024-02-21T08:25:00;96862.06;;;4.94;100.00
64141;BME280;50436;50.618;7.932;2024-02-21T08:27:46;96853.50;;;5.18;100.00
64141;BME280;50436;50.618;7.932;2024-02-21T08:30:32;96848.59;;;5.09;100.00
64141;BME280;50436;50.618;7.932;2024-02-21T08:33:18;96840.03;;;5.07;100.00
64141;BME280;50436;50.618;7.932;2024-02-21T08:36:05;96827.78;;;5.19;100.00
64141;BME280;50436;50.618;7.932;2024-02-21T08:38:50;96833.47;;;5.29;100.00
64141;BME280;50436;50.618;7.932;2024-02-21T08:41:36;96829.00;;;5.29;100.00
64141;BME280;50436;50.618;7.932;2024-02-21T08:44:23;96839.00;;;5.41;100.00
64141;BME280;50436;50.618;7.932;2024-02-21T08:47:12;96827.53;;;5.53;100.00
64141;BME280;50436;50.618;7.932;2024-02-21T08:49:58;96822.03;;;5.48;100.00
64141;BME280;50436;50.618;7.932;2024-02-21T08:52:44;96820.38;;;5.61;100.00
64141;BME280;50436;50.618;7.932;2024-02-21T08:55:29;96813.63;;;5.51;100.00
64141;BME280;50436;50.618;7.932;2024-02-21T08:58:15;96816.78;;;5.02;100.00
64141;BME280;50436;50.618;7.932;2024-02-21T09:01:01;96808.19;;;5.26;100.00
64141;BME280;50436;50.618;7.932;2024-02-21T09:03:47;96812.22;;;5.49;100.00
64141;BME280;50436;50.618;7.932;2024-02-21T09:06:33;96810.34;;;5.69;100.00
64141;BME280;50436;50.618;7.932;2024-02-21T09:09:21;96794.94;;;5.98;100.00
64141;BME280;50436;50.618;7.932;2024-02-21T09:12:07;96781.38;;;5.61;100.00
64141;BME280;50436;50.618;7.932;2024-02-21T09:14:53;96791.00;;;6.07;100.00
64141;BME280;50436;50.618;7.932;2024-02-21T09:17:39;96795.50;;;6.06;100.00
64141;BME280;50436;50.618;7.932;2024-02-21T09:20:25;96790.88;;;5.88;100.00
64141;BME280;50436;50.618;7.932;2024-02-21T09:23:11;96797.47;;;5.66;100.00
64141;BME280;50436;50.618;7.932;2024-02-21T09:25:57;96783.34;;;5.92;100.00
64141;BME280;50436;50.618;7.932;2024-02-21T09:28:45;96782.56;;;5.65;100.00
64141;BME280;50436;50.618;7.932;2024-02-21T09:31:31;96786.53;;;6.07;100.00
64141;BME280;50436;50.618;7.932;2024-02-21T09:34:19;96778.44;;;6.27;100.00
64141;BME280;50436;50.618;7.932;2024-02-21T09:37:05;96779.94;;;6.55;100.00
64141;BME280;50436;50.618;7.932;2024-02-21T09:39:51;96767.13;;;6.70;100.00
64141;BME280;50436;50.618;7.932;2024-02-21T09:42:41;96759.75;;;6.97;100.00
64141;BME280;50436;50.618;7.932;2024-02-21T09:45:27;96764.75;;;6.30;100.00
64141;BME280;50436;50.618;7.932;2024-02-21T09:48:25;96756.81;;;6.80;100.00
64141;BME280;50436;50.618;7.932;2024-02-21T09:51:14;96751.88;;;7.09;100.00
64141;BME280;50436;50.618;7.932;2024-02-21T09:54:01;96751.69;;;7.04;100.00
64141;BME280;50436;50.618;7.932;2024-02-21T09:56:48;96734.97;;;6.96;100.00
64141;BME280;50436;50.618;7.932;2024-02-21T09:59:35;96725.84;;;6.61;100.00
64141;BME280;50436;50.618;7.932;2024-02-21T10:02:20;96728.03;;;6.95;100.00
64141;BME280;50436;50.618;7.932;2024-02-21T10:05:06;96722.59;;;7.09;100.00
64141;BME280;50436;50.618;7.932;2024-02-21T10:07:55;96725.84;;;7.29;100.00
64141;BME280;50436;50.618;7.932;2024-02-21T10:10:45;96728.91;;;6.89;100.00
64141;BME280;50436;50.618;7.932;2024-02-21T10:13:31;96724.06;;;7.23;100.00
64141;BME280;50436;50.618;7.932;2024-02-21T10:16:17;96733.47;;;7.25;100.00
64141;BME280;50436;50.618;7.932;2024-02-21T10:19:03;96726.22;;;6.71;100.00
64141;BME280;50436;50.618;7.932;2024-02-21T10:22:02;96715.56;;;6.71;100.00
64141;BME280;50436;50.618;7.932;2024-02-21T10:24:54;96712.72;;;6.91;100.00
64141;BME280;50436;50.618;7.932;2024-02-21T10:27:42;96717.22;;;7.34;100.00
64141;BME280;50436;50.618;7.932;2024-02-21T10:30:29;96715.94;;;7.36;100.00
64141;BME280;50436;50.618;7.932;2024-02-21T10:33:15;96714.16;;;7.67;100.00
64141;BME280;50436;50.618;7.932;2024-02-21T10:36:08;96702.91;;;8.13;100.00
64141;BME280;50436;50.618;7.932;2024-02-21T10:38:55;96708.69;;;8.10;100.00
64141;BME280;50436;50.618;7.932;2024-02-21T10:41:44;96697.34;;;8.45;100.00
64141;BME280;50436;50.618;7.932;2024-02-21T10:44:37;96694.81;;;8.61;100.00
64141;BME280;50436;50.618;7.932;2024-02-21T10:47:23;96690.00;;;8.40;100.00
64141;BME280;50436;50.618;7.932;2024-02-21T10:50:11;96679.97;;;8.65;100.00
64141;BME280;50436;50.618;7.932;2024-02-21T10:53:09;96684.47;;;8.53;100.00
64141;BME280;50436;50.618;7.932;2024-02-21T10:59:28;96668.13;;;9.20;100.00
64141;BME280;50436;50.618;7.932;2024-02-21T11:02:15;96665.19;;;9.45;100.00
64141;BME280;50436;50.618;7.932;2024-02-21T11:05:02;96671.31;;;9.86;100.00
64141;BME280;50436;50.618;7.932;2024-02-21T11:07:50;96657.78;;;9.75;100.00
64141;BME280;50436;50.618;7.932;2024-02-21T11:10:37;96645.91;;;9.43;100.00
64141;BME280;50436;50.618;7.932;2024-02-21T11:13:35;96640.63;;;9.08;100.00
64141;BME280;50436;50.618;7.932;2024-02-21T11:16:24;96638.13;;;8.24;100.00
64141;BME280;50436;50.618;7.932;2024-02-21T11:19:20;96637.22;;;8.30;100.00
64141;BME280;50436;50.618;7.932;2024-02-21T11:22:14;96632.66;;;8.49;100.00
64141;BME280;50436;50.618;7.932;2024-02-21T11:25:07;96642.16;;;8.03;100.00
64141;BME280;50436;50.618;7.932;2024-02-21T11:28:01;96632.06;;;7.64;100.00
64141;BME280;50436;50.618;7.932;2024-02-21T11:30:47;96637.19;;;7.29;100.00
64141;BME280;50436;50.618;7.932;2024-02-21T11:33:42;96630.06;;;7.59;100.00
64141;BME280;50436;50.618;7.932;2024-02-21T11:36:29;96612.44;;;7.88;100.00
64141;BME280;50436;50.618;7.932;2024-02-21T11:39:26;96618.28;;;8.08;100.00
64141;BME280;50436;50.618;7.932;2024-02-21T11:42:13;96624.69;;;8.31;100.00
64141;BME280;50436;50.618;7.932;2024-02-21T11:45:01;96611.41;;;8.01;100.00
64141;BME280;50436;50.618;7.932;2024-02-21T11:47:48;96593.03;;;8.11;100.00
64141;BME280;50436;50.618;7.932;2024-02-21T11:50:35;96566.09;;;8.43;100.00
64141;BME280;50436;50.618;7.932;2024-02-21T11:53:22;96572.91;;;8.74;100.00
64141;BME280;50436;50.618;7.932;2024-02-21T11:56:08;96555.38;;;8.89;100.00
64141;BME280;50436;50.618;7.932;2024-02-21T11:58:54;96569.84;;;9.05;100.00
64141;BME280;50436;50.618;7.932;2024-02-21T12:01:40;96544.84;;;9.23;100.00
64141;BME280;50436;50.618;7.932;2024-02-21T12:04:27;96551.81;;;9.53;100.00
64141;BME280;50436;50.618;7.932;2024-02-21T12:07:14;96518.66;;;10.16;100.00
64141;BME280;50436;50.618;7.932;2024-02-21T12:10:00;96527.34;;;11.00;100.00
64141;BME280;50436;50.618;7.932;2024-02-21T12:12:46;96508.78;;;11.37;100.00
64141;BME280;50436;50.618;7.932;2024-02-21T12:15:32;96509.75;;;10.82;100.00
64141;BME280;50436;50.618;7.932;2024-02-21T12:18:17;96508.06;;;10.76;100.00
64141;BME280;50436;50.618;7.932;2024-02-21T12:21:04;96501.09;;;10.75;100.00
64141;BME280;50436;50.618;7.932;2024-02-21T12:23:50;96519.16;;;10.29;100.00
64141;BME280;50436;50.618;7.932;2024-02-21T12:26:36;96494.38;;;9.84;100.00
64141;BME280;50436;50.618;7.932;2024-02-21T12:29:23;96474.03;;;8.92;100.00
64141;BME280;50436;50.618;7.932;2024-02-21T12:32:12;96482.53;;;8.77;100.00
64141;BME280;50436;50.618;7.932;2024-02-21T12:34:58;96472.13;;;9.04;100.00
64141;BME280;50436;50.618;7.932;2024-02-21T12:37:44;96475.94;;;8.80;100.00
64141;BME280;50436;50.618;7.932;2024-02-21T12:40:30;96475.25;;;8.61;100.00
64141;BME280;50436;50.618;7.932;2024-02-21T12:43:19;96469.84;;;7.97;100.00
64141;BME280;50436;50.618;7.932;2024-02-21T12:46:05;96449.09;;;8.34;100.00
64141;BME280;50436;50.618;7.932;2024-02-21T12:48:53;96456.03;;;8.59;100.00
64141;BME280;50436;50.618;7.932;2024-02-21T12:51:38;96452.47;;;8.42;100.00
64141;BME280;50436;50.618;7.932;2024-02-21T12:54:25;96441.22;;;8.28;100.00
64141;BME280;50436;50.618;7.932;2024-02-21T12:57:14;96441.34;;;8.09;100.00
64141;BME280;50436;50.618;7.932;2024-02-21T13:00:00;96420.06;;;7.86;100.00
64141;BME280;50436;50.618;7.932;2024-02-21T13:02:46;96419.34;;;7.91;100.00
64141;BME280;50436;50.618;7.932;2024-02-21T13:05:32;96423.34;;;8.17;100.00
64141;BME280;50436;50.618;7.932;2024-02-21T13:08:20;96407.09;;;8.53;100.00
64141;BME280;50436;50.618;7.932;2024-02-21T13:11:07;96400.28;;;8.46;100.00
64141;BME280;50436;50.618;7.932;2024-02-21T13:13:55;96387.28;;;8.78;100.00
64141;BME280;50436;50.618;7.932;2024-02-21T13:16:41;96402.69;;;8.87;100.00
64141;BME280;50436;50.618;7.932;2024-02-21T13:19:26;96393.81;;;8.99;100.00
64141;BME280;50436;50.618;7.932;2024-02-21T13:22:12;96386.50;;;9.23;100.00
64141;BME280;50436;50.618;7.932;2024-02-21T13:24:58;96374.66;;;9.02;100.00
64141;BME280;50436;50.618;7.932;2024-02-21T13:27:44;96381.13;;;9.06;100.00
64141;BME280;50436;50.618;7.932;2024-02-21T13:30:30;96368.78;;;9.67;100.00
64141;BME280;50436;50.618;7.932;2024-02-21T13:33:16;96364.16;;;9.12;100.00
64141;BME280;50436;50.618;7.932;2024-02-21T13:36:02;96371.94;;;9.47;100.00
64141;BME280;50436;50.618;7.932;2024-02-21T13:38:49;96333.88;;;8.89;100.00
64141;BME280;50436;50.618;7.932;2024-02-21T13:41:37;96340.94;;;8.38;100.00
64141;BME280;50436;50.618;7.932;2024-02-21T13:44:22;96342.06;;;8.71;100.00
64141;BME280;50436;50.618;7.932;2024-02-21T13:47:09;96328.16;;;9.14;100.00
64141;BME280;50436;50.618;7.932;2024-02-21T13:49:55;96313.03;;;9.37;100.00
64141;BME280;50436;50.618;7.932;2024-02-21T13:52:41;96308.66;;;9.31;100.00
64141;BME280;50436;50.618;7.932;2024-02-21T13:55:27;96301.88;;;9.06;100.00
64141;BME280;50436;50.618;7.932;2024-02-21T13:58:13;96295.28;;;8.35;100.00
64141;BME280;50436;50.618;7.932;2024-02-21T14:00:59;96300.16;;;8.55;100.00
64141;BME280;50436;50.618;7.932;2024-02-21T14:03:46;96280.44;;;8.56;100.00
64141;BME280;50436;50.618;7.932;2024-02-21T14:06:32;96255.16;;;8.30;100.00
64141;BME280;50436;50.618;7.932;2024-02-21T14:09:18;96231.91;;;8.25;100.00
64141;BME280;50436;50.618;7.932;2024-02-21T14:12:04;96225.00;;;8.13;100.00
64141;BME280;50436;50.618;7.932;2024-02-21T14:14:53;96232.94;;;8.24;100.00
64141;BME280;50436;50.618;7.932;2024-02-21T14:17:40;96219.09;;;8.10;100.00
64141;BME280;50436;50.618;7.932;2024-02-21T14:20:26;96212.38;;;8.08;100.00
64141;BME280;50436;50.618;7.932;2024-02-21T14:23:12;96204.16;;;8.38;100.00
64141;BME280;50436;50.618;7.932;2024-02-21T14:25:59;96198.63;;;7.99;100.00
64141;BME280;50436;50.618;7.932;2024-02-21T14:28:44;96202.69;;;8.02;100.00
64141;BME280;50436;50.618;7.932;2024-02-21T14:31:31;96186.50;;;7.63;100.00
64141;BME280;50436;50.618;7.932;2024-02-21T14:34:18;96172.94;;;7.53;100.00
64141;BME280;50436;50.618;7.932;2024-02-21T14:37:04;96158.97;;;7.46;100.00
64141;BME280;50436;50.618;7.932;2024-02-21T14:39:50;96175.31;;;7.38;100.00
64141;BME280;50436;50.618;7.932;2024-02-21T14:42:36;96188.03;;;7.47;100.00
64141;BME280;50436;50.618;7.932;2024-02-21T14:45:22;96174.31;;;7.67;100.00
64141;BME280;50436;50.618;7.932;2024-02-21T14:48:08;96176.41;;;7.65;100.00
64141;BME280;50436;50.618;7.932;2024-02-21T14:50:54;96162.78;;;7.50;100.00
64141;BME280;50436;50.618;7.932;2024-02-21T14:53:40;96161.31;;;7.42;100.00